RESULTATS »

INSCRITS PRESENTATS ACABEN RETIRATS DESQUALIFICATS DIST. TRAM 1 DIST. TRAM 2 DIST. TRAM 3 TEMP. EXT TEMP. AIGUA
608 589 19 0 1500 39 10 26 23

CLASSIFICACIÓ

MASCULÍ FEMENÍ CATEGORIES CLUBS (MASCULINA) CLUBS (FEMENINA) INDIVIDUALS GRUPS D'EDAT

LLOCDORSALNOMCLUBCAT.T.META| P.Tram 1 || P.Tram 2 |Km/hTEMPS| P.Tram 3 |PARC_1PARC_2
1 40ANNA FLAQUER PORTIFASTTRIATLON CLUBSUB23F02:18:244600:23:2532301:15:3930.9301:39:046300:39:200:00:000:00:00
2 45LAIA CONESA I MURFASTTRIATLON CLUBJNF02:21:5113000:26:1527801:14:0631.5801:40:2112800:41:300:00:000:00:00
3 65JULIANA VILLASANTE DUEÑASFASTTRIATLON CLUBABF02:22:204300:23:2332401:15:4030.9301:39:0319500:43:170:00:000:00:00
4 1859VERÓNICA ANDREA AVENI RAPC.N. VIC-ETBABF02:23:3211800:25:5229501:14:3531.3701:40:2718600:43:050:00:000:00:00
5 127ESTER HERNANDEZ CASAHUGAC.N. REUS PLOMSABF02:23:4616300:27:0925401:13:3331.8201:40:4218500:43:040:00:000:00:00
6 3516NURIA PEIX TARRESC.N. VIC-ETBSUB23F02:24:082800:22:5333601:16:0630.7501:38:5927300:45:090:00:000:00:00
7 60ANABEL GRACIA GARASAFASTTRIATLON CLUBV1F02:26:2614100:26:5132601:15:4230.9101:42:3321700:43:530:00:000:00:00
8 21AIDA FABREGA ARGERICHC.N. REUS PLOMSABF02:26:3718100:27:3630901:15:0931.1401:42:4521600:43:520:00:000:00:00
9 1985LAURA GARCIA VILACLUB NATACIO BANYOLESABF02:28:0922700:28:4327301:13:5531.6601:42:3829100:45:310:00:000:00:00
10 5119OLGA PONS BOSCHC.E. PICORNELLABF02:28:2026400:29:4534801:16:2830.6001:46:1314400:42:070:00:000:00:00
11 121PILAR RUS GARCIAC.N. REUS PLOMSV1F02:30:4732000:31:1037701:17:3130.1901:48:4114300:42:060:00:000:00:00
12 3501MIRIAM CODINA CASTILLOCLUB TRIATLO GRANOLLERSABF02:31:0731200:31:0531201:15:1431.1001:46:1925400:44:480:00:000:00:00
13 5RAQUEL DEL AGUILA BRAVOTRIATLO BCN-TRIFORFUNABF02:31:4628900:30:2131501:15:2331.0401:45:4431800:46:020:00:000:00:00
14 1988BELEN HIDALGO VALLSCERDANYOLA CHV1F02:32:1310000:24:5646401:22:1928.4301:47:1526400:44:580:00:000:00:00
15 1934KATE KRISTI KIDGERC.N. CATALUNYAABF02:32:5119800:27:5638201:17:4530.1001:45:4135900:47:100:00:000:00:00
16 1815BELÉN SALOMONI SCHWABC.N. VIC-ETBABF02:33:5520600:28:0338401:17:5130.0601:45:5438000:48:010:00:000:00:00
17 5081MARIA MARTINEZ CORELLANOC.E. PICORNELLABF02:34:1829600:30:3038901:18:0829.9501:48:3830000:45:400:00:000:00:00
18 23MERCE MAGEM PRATC.N. REUS PLOMSV2F02:35:0422300:28:3441801:20:0329.2301:48:3733500:46:270:00:000:00:00
19 1837LAURA MAQUEDA MARCOSC.T. S.J. ABADESSESABF02:35:1612800:26:1241001:19:4429.3501:45:5640600:49:200:00:000:00:00
20 1912MERCE ASENSIO MIGUELC.N. CATALUNYAV1F02:36:5514300:26:5339901:18:5029.6801:45:4345600:51:120:00:000:00:00
21 5082EVA GONZÁLEZ VILAITRIATLETES SOLIDARISABF02:38:5925500:29:3346901:22:4528.2801:52:1834200:46:410:00:000:00:00
22 5160EVA PUPIM GETEC.T. S.J. ABADESSESV1F02:42:3939900:33:2647501:23:3028.0201:56:5630300:45:430:00:000:00:00
23 3567SILVIA RODRIGUEZ DONAIRECERDANYOLA CHABF02:43:3129200:30:2539101:18:1629.9001:48:4151500:54:500:00:000:00:00
24 5137AITANA DOMÈNECH MARTÍNEZPRAT TRIATLO 1994ABF02:44:2548300:35:2250701:26:2627.0702:01:4816800:42:370:00:000:00:00
25 3521MONICA CRISOL SALASCLUB NATACIO RUBIABF02:44:3528000:30:1050501:26:2127.1001:56:3138200:48:040:00:000:00:00
26 1835ANA MARÍA OTERO PIÑEIROABSOLUT SPORTABF02:44:3943200:34:0048001:23:5627.8801:57:5634400:46:430:00:000:00:00
27 1853LAURA PEREZ CANTEROCLUB NATACIO RUBISUB23F02:44:4221900:28:3049401:25:0727.4901:53:3745200:51:050:00:000:00:00
28 1900MARTA CERDA LAFONTC.N. CATALUNYAABF02:45:5430100:30:4748301:24:1227.7901:54:5944800:50:550:00:000:00:00
29 1897EMMA ANDERSON CRYNST-BIKES CLUB TRIATLOABF02:46:0849800:36:0838701:17:5730.0201:54:0547500:52:030:00:000:00:00
30 4041CAROLINA APARICIO CABANILC.N. SABADELLABF02:46:1447600:35:0541301:19:4829.3201:54:5345800:51:210:00:000:00:00
31 5069NURIA BRUGUERA ROIGC.N. MATAROABF02:46:2631700:31:0850901:26:4126.9901:57:4939300:48:370:00:000:00:00
32 5096ANGELA AGUILAR FUENTESC.N. CATALUNYAV1F02:46:4641200:33:3550801:26:3227.0402:00:0734100:46:390:00:000:00:00
33 6MONTSE JUNCAROL REGUANTCLUB TRIATLO L´EIX DE NAVV1F02:46:5345700:34:3646601:22:3228.3501:57:0841500:49:450:00:000:00:00
34 5194ANNA YMBERN JIMENEZC.A. XALOCABF02:48:0217700:27:3252101:27:1826.8001:54:5049100:53:120:00:000:00:00
35 5048MIRIAM MURILLO BLAZQUEZC.E. NO TE PARESJNF02:48:0720300:28:0050101:26:0927.1601:54:0950400:53:580:00:000:00:00
36 3529CHIARA TRONCARELLIC.E. PICORNELLABF02:48:2117300:27:2950401:26:1927.1101:53:4851000:54:330:00:000:00:00
37 1906IRENE FONT PUJULÀCERDANYOLA CHABF02:49:4515300:27:0452201:27:2626.7601:54:3052300:55:150:00:000:00:00
38 5059ROSER PLADEVALL IZARDC.N. SABADELLABF02:50:2321400:28:2347601:23:4527.9401:52:0855400:58:150:00:000:00:00
39 7023ANNA BOFARULL BALLÚSLLICENCIA DE DIAJNF02:50:3835700:32:1451301:27:0226.8901:59:1646000:51:220:00:000:00:00
40 1909EULALIA CALVERAS AUGEC.T. S.J. ABADESSESV1F02:51:0756900:40:2848701:24:3527.6702:05:0332000:46:040:00:000:00:00
41 4004Mª JESUS SANTOS BLANCHCLUB TRIATLO BADIA DEL VAV1F02:51:5216900:27:1555701:32:5725.1702:00:1246900:51:400:00:000:00:00
42 113ELISENDA PRACHT MONTAMATCLUB POLIESPORTIU PUIGCERV1F02:53:0037300:32:4753901:29:5226.0402:02:3943300:50:210:00:000:00:00
43 5102MCARME ARJÓ GUARDIACLUB ESPORTIU TRI 4.40ABF02:53:1324500:29:1152801:28:2326.4801:57:3452800:55:390:00:000:00:00
44 7036ANDREA MORENO MUÑOZLLICENCIA DE DIASUB23F02:53:2043400:34:0555201:32:1625.3602:06:2135100:46:590:00:000:00:00
45 51NURIA GARCIA GINJAUMETRIATLO BCN-TRIFORFUNSUB23F02:53:2423800:29:0054901:31:3825.5402:00:3848200:52:460:00:000:00:00
46 6001MARISA MARKIEGI AMONDARAIC.D KAIROSCOREV1F02:54:2352600:36:5950301:26:1427.1402:03:1345400:51:100:00:000:00:00
47 7016TIPHAINE ANDERBOUHRLLICENCIA DE DIAV1F02:55:1754100:37:4551901:27:1626.8102:05:0143000:50:160:00:000:00:00
48 5010IRENE MELINA ARAQUE BEKKITEAM CALELLA TRIATHLONABF02:55:2952300:36:5353801:29:4526.0702:06:3839800:48:510:00:000:00:00
49 1851MARTA SANCHEZ SALINASCLUB TRIATLO L´EIX DE NAVV1F02:58:4254700:38:0253401:29:0626.2602:07:0846300:51:340:00:000:00:00
50 7017PATRICIA TORRES MILLALLICENCIA DE DIAABF02:59:1029900:30:3856501:35:1324.5802:05:5149300:53:190:00:000:00:00
51 74LISA COCKBURNC.N. SABADELLV2F02:59:1340700:33:3453501:29:2026.1902:02:5453800:56:190:00:000:00:00
52 1849TONA RIBAS DUCHC.E. VILA OLIMPICAV2F03:01:3943600:34:0756801:35:5424.4002:10:0146700:51:380:00:000:00:00
53 3513RAQUEL SÁNCHEZ TIENDACLUB TRIATLO BADIA DEL VAABF03:02:0649400:35:5954501:30:3625.8302:06:3552600:55:310:00:000:00:00
54 3547LÍDIA RODRÍGUEZ RUANOCLUB TRIATLO L´EIX DE NAVABF03:02:3835900:32:1755601:32:4925.2102:05:0654700:57:320:00:000:00:00
55 1827MARINA CASTELLS CODINACLUB TRIATLÓ LLEIDAJNF03:02:5836600:32:3955001:31:5725.4502:04:3655500:58:220:00:000:00:00
56 31MONTSE CUEVAS CASTILLOCLUB TRIATLO GRANOLLERSV2F03:03:2245500:34:3656301:34:4524.7002:09:2150600:54:010:00:000:00:00
57 5007CARLOTA CELMA NEIRACERCLE SABADELLES 1856V1F03:04:1851800:36:4156901:35:5924.3802:12:4046600:51:380:00:000:00:00
58 3598ANA NAVARRO CANTOSCLUB TRIATLO BADIA DEL VAABF03:06:3627300:30:0157001:36:3324.2402:06:3456401:00:020:00:000:00:00
59 3505NOEMI APARICIO CABANILLASC.N. SABADELLABF03:07:2549700:36:0656401:34:4824.6802:10:5454000:56:310:00:000:00:00
60 4087JACQUELINE CAMÓS WIEWELCLUB NATACIO BANYOLESV1F03:10:5258500:46:584801:06:5135.0001:53:4958001:17:030:00:000:00:00
61 3557ANNA PASCUAL PICHCLUB NATACIO BANYOLESV2F03:12:5455100:38:1056201:34:3124.7602:12:4156501:00:130:00:000:00:00
62 5005EVA CALERO BALLBECERCLE SABADELLES 1856V1F03:14:1157700:41:1557301:38:1323.8202:19:2851100:54:430:00:000:00:00
63 5041ALBA SANCHEZ NAVASCLUB TRIATLO SABADELLABF03:16:5456600:40:0657801:40:4423.2302:20:5053500:56:040:00:000:00:00
64 20MONTSERRAT CLAVERO SANCHEC.N. REUS PLOMSV3F03:18:2548200:35:1957401:38:2223.7902:13:4157101:04:440:00:000:00:00
65 1855MÒNICA BONEU FONDEVILACLUB NATACIO RUBIABF03:25:3340900:33:3456001:33:1225.1102:06:4658101:18:470:00:000:00:00
66 7048IDOIA VILA ROCALLICENCIA DE DIAABF03:27:0157500:40:4757701:40:1523.3402:21:0257401:05:590:00:000:00:00






FEDERACIÓ CATALANA DE TRIATLÓ
SEU CENTRAL I CORRESPONDÈNCIA: Rambla Guipúscoa 23-25 2on-D · 08018 Barcelona · Tel / Fax : 93 307 93 35
ATENCIÓ AL PÚBLIC: Passeig Joan de Borbó, 93 (Club Natació Barcelona) · 08039 Barcelona · Tel / Fax : 93 307 93 32